sensor_id;sensor_type;location;lat;lon;timestamp;temperature;humidity
10417;DHT22;62605;49.432;8.680;2023-06-04T00:01:21;18.00;1.00
10417;DHT22;62605;49.432;8.680;2023-06-04T00:03:49;18.00;1.00
10417;DHT22;62605;49.432;8.680;2023-06-04T00:06:18;18.00;1.00
10417;DHT22;62605;49.432;8.680;2023-06-04T00:08:46;18.00;1.00
10417;DHT22;62605;49.432;8.680;2023-06-04T00:11:15;18.00;1.00
10417;DHT22;62605;49.432;8.680;2023-06-04T00:13:45;17.90;1.00
10417;DHT22;62605;49.432;8.680;2023-06-04T00:16:16;17.90;1.00
10417;DHT22;62605;49.432;8.680;2023-06-04T00:18:43;18.00;1.00
10417;DHT22;62605;49.432;8.680;2023-06-04T00:21:11;18.00;1.00
10417;DHT22;62605;49.432;8.680;2023-06-04T00:23:39;17.90;1.00
10417;DHT22;62605;49.432;8.680;2023-06-04T00:26:06;17.80;1.00
10417;DHT22;62605;49.432;8.680;2023-06-04T00:28:33;18.00;1.00
10417;DHT22;62605;49.432;8.680;2023-06-04T00:31:02;17.90;1.00
10417;DHT22;62605;49.432;8.680;2023-06-04T00:33:31;17.80;1.00
10417;DHT22;62605;49.432;8.680;2023-06-04T00:36:07;17.80;1.00
10417;DHT22;62605;49.432;8.680;2023-06-04T00:38:34;17.70;1.00
10417;DHT22;62605;49.432;8.680;2023-06-04T00:41:01;17.70;1.00
10417;DHT22;62605;49.432;8.680;2023-06-04T00:43:29;17.60;1.00
10417;DHT22;62605;49.432;8.680;2023-06-04T00:45:57;17.50;1.00
10417;DHT22;62605;49.432;8.680;2023-06-04T00:48:26;17.50;1.00
10417;DHT22;62605;49.432;8.680;2023-06-04T00:50:56;17.50;1.00
10417;DHT22;62605;49.432;8.680;2023-06-04T00:53:25;17.50;1.00
10417;DHT22;62605;49.432;8.680;2023-06-04T00:55:53;17.50;1.00
10417;DHT22;62605;49.432;8.680;2023-06-04T00:58:22;17.60;1.00
10417;DHT22;62605;49.432;8.680;2023-06-04T01:00:54;17.50;1.00
10417;DHT22;62605;49.432;8.680;2023-06-04T01:03:32;17.60;1.00
10417;DHT22;62605;49.432;8.680;2023-06-04T01:06:14;17.50;1.00
10417;DHT22;62605;49.432;8.680;2023-06-04T01:08:49;17.50;1.00
10417;DHT22;62605;49.432;8.680;2023-06-04T01:11:31;17.50;1.00
10417;DHT22;62605;49.432;8.680;2023-06-04T01:13:58;17.50;1.00
10417;DHT22;62605;49.432;8.680;2023-06-04T01:16:27;17.60;1.00
10417;DHT22;62605;49.432;8.680;2023-06-04T01:18:58;17.60;1.00
10417;DHT22;62605;49.432;8.680;2023-06-04T01:21:34;17.60;1.00
10417;DHT22;62605;49.432;8.680;2023-06-04T01:24:06;17.70;1.00
10417;DHT22;62605;49.432;8.680;2023-06-04T01:26:35;17.70;1.00
10417;DHT22;62605;49.432;8.680;2023-06-04T01:29:05;17.60;1.00
10417;DHT22;62605;49.432;8.680;2023-06-04T01:31:35;17.50;1.00
10417;DHT22;62605;49.432;8.680;2023-06-04T01:34:07;17.50;1.00
10417;DHT22;62605;49.432;8.680;2023-06-04T01:36:37;17.50;1.00
10417;DHT22;62605;49.432;8.680;2023-06-04T01:39:04;17.50;1.00
10417;DHT22;62605;49.432;8.680;2023-06-04T01:41:31;17.50;1.00
10417;DHT22;62605;49.432;8.680;2023-06-04T01:43:59;17.50;1.00
10417;DHT22;62605;49.432;8.680;2023-06-04T01:46:29;17.50;1.00
10417;DHT22;62605;49.432;8.680;2023-06-04T01:48:56;17.50;1.00
10417;DHT22;62605;49.432;8.680;2023-06-04T01:51:24;17.50;1.00
10417;DHT22;62605;49.432;8.680;2023-06-04T01:53:53;17.50;1.00
10417;DHT22;62605;49.432;8.680;2023-06-04T01:56:21;17.40;1.00
10417;DHT22;62605;49.432;8.680;2023-06-04T01:58:48;17.40;1.00
10417;DHT22;62605;49.432;8.680;2023-06-04T02:01:15;17.40;1.00
10417;DHT22;62605;49.432;8.680;2023-06-04T02:03:42;17.40;1.00
10417;DHT22;62605;49.432;8.680;2023-06-04T02:06:10;17.40;1.00
10417;DHT22;62605;49.432;8.680;2023-06-04T02:08:38;17.40;1.00
10417;DHT22;62605;49.432;8.680;2023-06-04T02:11:09;17.40;1.00
10417;DHT22;62605;49.432;8.680;2023-06-04T02:13:37;17.40;1.00
10417;DHT22;62605;49.432;8.680;2023-06-04T02:16:06;17.40;1.00
10417;DHT22;62605;49.432;8.680;2023-06-04T02:18:34;17.40;1.00
10417;DHT22;62605;49.432;8.680;2023-06-04T02:21:03;17.40;1.00
10417;DHT22;62605;49.432;8.680;2023-06-04T02:23:31;17.30;1.00
10417;DHT22;62605;49.432;8.680;2023-06-04T02:25:59;17.30;1.00
10417;DHT22;62605;49.432;8.680;2023-06-04T02:28:29;17.20;1.00
10417;DHT22;62605;49.432;8.680;2023-06-04T02:30:57;17.20;1.00
10417;DHT22;62605;49.432;8.680;2023-06-04T02:33:25;17.10;1.00
10417;DHT22;62605;49.432;8.680;2023-06-04T02:35:53;17.20;1.00
10417;DHT22;62605;49.432;8.680;2023-06-04T02:38:21;17.20;1.00
10417;DHT22;62605;49.432;8.680;2023-06-04T02:40:49;17.20;1.00
10417;DHT22;62605;49.432;8.680;2023-06-04T02:43:17;17.20;1.00
10417;DHT22;62605;49.432;8.680;2023-06-04T02:45:46;17.30;1.00
10417;DHT22;62605;49.432;8.680;2023-06-04T02:48:13;17.30;1.00
10417;DHT22;62605;49.432;8.680;2023-06-04T02:50:40;17.50;1.00
10417;DHT22;62605;49.432;8.680;2023-06-04T02:53:08;17.30;1.00
10417;DHT22;62605;49.432;8.680;2023-06-04T02:55:35;17.20;1.00
10417;DHT22;62605;49.432;8.680;2023-06-04T02:58:03;17.20;1.00
10417;DHT22;62605;49.432;8.680;2023-06-04T03:00:33;17.20;1.00
10417;DHT22;62605;49.432;8.680;2023-06-04T03:03:03;17.10;1.00
10417;DHT22;62605;49.432;8.680;2023-06-04T03:05:30;17.00;1.00
10417;DHT22;62605;49.432;8.680;2023-06-04T03:08:00;16.90;1.00
10417;DHT22;62605;49.432;8.680;2023-06-04T03:10:28;16.80;1.00
10417;DHT22;62605;49.432;8.680;2023-06-04T03:12:55;16.70;1.00
10417;DHT22;62605;49.432;8.680;2023-06-04T03:15:22;16.60;1.00
10417;DHT22;62605;49.432;8.680;2023-06-04T03:17:49;16.50;1.00
10417;DHT22;62605;49.432;8.680;2023-06-04T03:20:18;16.30;1.00
10417;DHT22;62605;49.432;8.680;2023-06-04T03:22:50;16.30;1.00
10417;DHT22;62605;49.432;8.680;2023-06-04T03:25:17;16.30;1.00
10417;DHT22;62605;49.432;8.680;2023-06-04T03:27:45;16.10;1.00
10417;DHT22;62605;49.432;8.680;2023-06-04T03:30:13;16.10;1.00
10417;DHT22;62605;49.432;8.680;2023-06-04T03:32:40;16.00;1.00
10417;DHT22;62605;49.432;8.680;2023-06-04T03:35:09;15.90;1.00
10417;DHT22;62605;49.432;8.680;2023-06-04T03:37:38;15.80;1.00
10417;DHT22;62605;49.432;8.680;2023-06-04T03:40:09;15.80;1.00
10417;DHT22;62605;49.432;8.680;2023-06-04T03:42:37;15.70;1.00
10417;DHT22;62605;49.432;8.680;2023-06-04T03:45:05;15.70;1.00
10417;DHT22;62605;49.432;8.680;2023-06-04T03:47:33;15.70;1.00
10417;DHT22;62605;49.432;8.680;2023-06-04T03:50:00;15.60;1.00
10417;DHT22;62605;49.432;8.680;2023-06-04T03:52:27;15.60;1.00
10417;DHT22;62605;49.432;8.680;2023-06-04T03:54:56;15.50;1.00
10417;DHT22;62605;49.432;8.680;2023-06-04T03:57:24;15.50;1.00
10417;DHT22;62605;49.432;8.680;2023-06-04T04:03:14;15.40;1.00
10417;DHT22;62605;49.432;8.680;2023-06-04T04:05:41;15.30;1.00
10417;DHT22;62605;49.432;8.680;2023-06-04T04:08:08;15.20;1.00
10417;DHT22;62605;49.432;8.680;2023-06-04T04:10:37;15.30;1.00
10417;DHT22;62605;49.432;8.680;2023-06-04T04:13:04;15.20;1.00
10417;DHT22;62605;49.432;8.680;2023-06-04T04:15:31;15.00;1.00
10417;DHT22;62605;49.432;8.680;2023-06-04T04:17:59;15.10;1.00
10417;DHT22;62605;49.432;8.680;2023-06-04T04:20:27;15.00;1.00
10417;DHT22;62605;49.432;8.680;2023-06-04T04:22:54;15.10;1.00
10417;DHT22;62605;49.432;8.680;2023-06-04T04:25:21;15.10;1.00
10417;DHT22;62605;49.432;8.680;2023-06-04T04:27:50;15.10;1.00
10417;DHT22;62605;49.432;8.680;2023-06-04T04:30:18;15.10;1.00
10417;DHT22;62605;49.432;8.680;2023-06-04T04:32:46;15.10;1.00
10417;DHT22;62605;49.432;8.680;2023-06-04T04:35:15;15.10;1.00
10417;DHT22;62605;49.432;8.680;2023-06-04T04:37:43;15.10;1.00
10417;DHT22;62605;49.432;8.680;2023-06-04T04:40:11;15.00;1.00
10417;DHT22;62605;49.432;8.680;2023-06-04T04:42:39;14.80;1.00
10417;DHT22;62605;49.432;8.680;2023-06-04T04:45:09;14.80;1.00
10417;DHT22;62605;49.432;8.680;2023-06-04T04:47:37;14.80;1.00
10417;DHT22;62605;49.432;8.680;2023-06-04T04:50:05;14.70;1.00
10417;DHT22;62605;49.432;8.680;2023-06-04T04:52:33;14.80;1.00
10417;DHT22;62605;49.432;8.680;2023-06-04T04:55:01;14.70;1.00
10417;DHT22;62605;49.432;8.680;2023-06-04T04:57:30;14.70;1.00
10417;DHT22;62605;49.432;8.680;2023-06-04T04:59:59;14.80;1.00
10417;DHT22;62605;49.432;8.680;2023-06-04T05:02:31;14.80;1.00
10417;DHT22;62605;49.432;8.680;2023-06-04T05:04:59;14.90;1.00
10417;DHT22;62605;49.432;8.680;2023-06-04T05:07:26;14.80;1.00
10417;DHT22;62605;49.432;8.680;2023-06-04T05:09:53;14.90;1.00
10417;DHT22;62605;49.432;8.680;2023-06-04T05:12:21;14.90;1.00
10417;DHT22;62605;49.432;8.680;2023-06-04T05:14:49;15.10;1.00
10417;DHT22;62605;49.432;8.680;2023-06-04T05:17:20;15.00;1.00
10417;DHT22;62605;49.432;8.680;2023-06-04T05:19:57;15.20;1.00
10417;DHT22;62605;49.432;8.680;2023-06-04T05:22:37;15.30;1.00
10417;DHT22;62605;49.432;8.680;2023-06-04T05:25:06;15.40;1.00
10417;DHT22;62605;49.432;8.680;2023-06-04T05:27:34;15.30;1.00
10417;DHT22;62605;49.432;8.680;2023-06-04T05:30:03;15.50;1.00
10417;DHT22;62605;49.432;8.680;2023-06-04T05:32:33;15.50;1.00
10417;DHT22;62605;49.432;8.680;2023-06-04T05:35:10;15.50;1.00
10417;DHT22;62605;49.432;8.680;2023-06-04T05:37:38;15.50;1.00
10417;DHT22;62605;49.432;8.680;2023-06-04T05:40:09;15.60;1.00
10417;DHT22;62605;49.432;8.680;2023-06-04T05:42:38;15.60;1.00
10417;DHT22;62605;49.432;8.680;2023-06-04T05:45:10;15.70;1.00
10417;DHT22;62605;49.432;8.680;2023-06-04T05:47:47;15.70;1.00
10417;DHT22;62605;49.432;8.680;2023-06-04T05:50:18;15.80;1.00
10417;DHT22;62605;49.432;8.680;2023-06-04T05:53:01;15.90;1.00
10417;DHT22;62605;49.432;8.680;2023-06-04T05:55:43;15.90;1.00
10417;DHT22;62605;49.432;8.680;2023-06-04T05:58:11;16.00;1.00
10417;DHT22;62605;49.432;8.680;2023-06-04T06:00:39;16.00;1.00
10417;DHT22;62605;49.432;8.680;2023-06-04T06:03:06;15.90;1.00
10417;DHT22;62605;49.432;8.680;2023-06-04T06:05:39;15.90;1.00
10417;DHT22;62605;49.432;8.680;2023-06-04T06:08:20;16.00;1.00
10417;DHT22;62605;49.432;8.680;2023-06-04T06:10:50;16.10;1.00
10417;DHT22;62605;49.432;8.680;2023-06-04T06:13:18;16.30;1.00
10417;DHT22;62605;49.432;8.680;2023-06-04T06:15:46;16.30;1.00
10417;DHT22;62605;49.432;8.680;2023-06-04T06:18:15;16.50;1.00
10417;DHT22;62605;49.432;8.680;2023-06-04T06:20:44;16.60;1.00
10417;DHT22;62605;49.432;8.680;2023-06-04T06:23:14;16.60;1.00
10417;DHT22;62605;49.432;8.680;2023-06-04T06:26:06;16.70;1.00
10417;DHT22;62605;49.432;8.680;2023-06-04T06:28:47;16.80;1.00
10417;DHT22;62605;49.432;8.680;2023-06-04T06:31:31;16.90;1.00
10417;DHT22;62605;49.432;8.680;2023-06-04T06:34:02;17.00;1.00
10417;DHT22;62605;49.432;8.680;2023-06-04T06:36:30;17.00;1.00
10417;DHT22;62605;49.432;8.680;2023-06-04T06:38:58;17.10;1.00
10417;DHT22;62605;49.432;8.680;2023-06-04T06:41:26;17.20;1.00
10417;DHT22;62605;49.432;8.680;2023-06-04T06:43:53;17.50;1.00
10417;DHT22;62605;49.432;8.680;2023-06-04T06:46:20;17.60;1.00
10417;DHT22;62605;49.432;8.680;2023-06-04T06:48:50;17.70;1.00
10417;DHT22;62605;49.432;8.680;2023-06-04T06:51:17;17.80;1.00
10417;DHT22;62605;49.432;8.680;2023-06-04T06:53:45;17.90;1.00
10417;DHT22;62605;49.432;8.680;2023-06-04T06:56:14;18.10;1.00
10417;DHT22;62605;49.432;8.680;2023-06-04T06:58:41;18.20;1.00
10417;DHT22;62605;49.432;8.680;2023-06-04T07:01:08;18.30;1.00
10417;DHT22;62605;49.432;8.680;2023-06-04T07:03:35;18.40;1.00
10417;DHT22;62605;49.432;8.680;2023-06-04T07:06:03;18.40;1.00
10417;DHT22;62605;49.432;8.680;2023-06-04T07:08:33;18.40;1.00
10417;DHT22;62605;49.432;8.680;2023-06-04T07:11:04;18.40;1.00
10417;DHT22;62605;49.432;8.680;2023-06-04T07:13:33;18.60;1.00
10417;DHT22;62605;49.432;8.680;2023-06-04T07:16:01;18.70;1.00
10417;DHT22;62605;49.432;8.680;2023-06-04T07:18:30;18.70;1.00
10417;DHT22;62605;49.432;8.680;2023-06-04T07:20:58;19.00;1.00
10417;DHT22;62605;49.432;8.680;2023-06-04T07:23:25;19.10;1.00
10417;DHT22;62605;49.432;8.680;2023-06-04T07:25:53;19.30;1.00
10417;DHT22;62605;49.432;8.680;2023-06-04T07:28:22;19.40;1.00
10417;DHT22;62605;49.432;8.680;2023-06-04T07:30:50;19.50;1.00
10417;DHT22;62605;49.432;8.680;2023-06-04T07:33:17;19.50;1.00
10417;DHT22;62605;49.432;8.680;2023-06-04T07:35:44;19.60;1.00
10417;DHT22;62605;49.432;8.680;2023-06-04T07:38:11;19.80;1.00
10417;DHT22;62605;49.432;8.680;2023-06-04T07:40:38;19.80;1.00
10417;DHT22;62605;49.432;8.680;2023-06-04T07:43:05;20.10;1.00
10417;DHT22;62605;49.432;8.680;2023-06-04T07:45:33;19.70;1.00
10417;DHT22;62605;49.432;8.680;2023-06-04T07:48:00;19.80;1.00
10417;DHT22;62605;49.432;8.680;2023-06-04T07:50:27;20.00;1.00
10417;DHT22;62605;49.432;8.680;2023-06-04T07:52:54;20.10;1.00
10417;DHT22;62605;49.432;8.680;2023-06-04T07:55:21;20.20;1.00
10417;DHT22;62605;49.432;8.680;2023-06-04T07:57:48;20.30;1.00
10417;DHT22;62605;49.432;8.680;2023-06-04T08:00:16;20.40;1.00
10417;DHT22;62605;49.432;8.680;2023-06-04T08:02:45;20.40;1.00
10417;DHT22;62605;49.432;8.680;2023-06-04T08:05:14;20.40;1.00
10417;DHT22;62605;49.432;8.680;2023-06-04T08:07:41;20.50;1.00
10417;DHT22;62605;49.432;8.680;2023-06-04T08:10:09;20.70;1.00
10417;DHT22;62605;49.432;8.680;2023-06-04T08:12:36;20.60;1.00
10417;DHT22;62605;49.432;8.680;2023-06-04T08:15:04;20.70;1.00
10417;DHT22;62605;49.432;8.680;2023-06-04T08:17:31;20.80;1.00
10417;DHT22;62605;49.432;8.680;2023-06-04T08:20:00;20.80;1.00
10417;DHT22;62605;49.432;8.680;2023-06-04T08:22:27;21.10;1.00
10417;DHT22;62605;49.432;8.680;2023-06-04T08:24:54;21.20;1.00
10417;DHT22;62605;49.432;8.680;2023-06-04T08:27:22;21.30;1.00
10417;DHT22;62605;49.432;8.680;2023-06-04T08:29:49;21.40;1.00
10417;DHT22;62605;49.432;8.680;2023-06-04T08:32:17;21.30;1.00
10417;DHT22;62605;49.432;8.680;2023-06-04T08:34:44;21.40;1.00
10417;DHT22;62605;49.432;8.680;2023-06-04T08:37:13;21.50;1.00
10417;DHT22;62605;49.432;8.680;2023-06-04T08:39:40;21.90;1.00
10417;DHT22;62605;49.432;8.680;2023-06-04T08:42:11;22.20;1.00
10417;DHT22;62605;49.432;8.680;2023-06-04T08:44:50;22.00;1.00
10417;DHT22;62605;49.432;8.680;2023-06-04T08:47:19;22.20;1.00
10417;DHT22;62605;49.432;8.680;2023-06-04T08:49:49;22.40;1.00
10417;DHT22;62605;49.432;8.680;2023-06-04T08:52:19;22.70;1.00
10417;DHT22;62605;49.432;8.680;2023-06-04T08:54:49;22.80;1.00
10417;DHT22;62605;49.432;8.680;2023-06-04T08:57:17;22.50;1.00
10417;DHT22;62605;49.432;8.680;2023-06-04T08:59:45;22.60;1.00
10417;DHT22;62605;49.432;8.680;2023-06-04T09:02:13;22.60;1.00
10417;DHT22;62605;49.432;8.680;2023-06-04T09:04:41;23.00;1.00
10417;DHT22;62605;49.432;8.680;2023-06-04T09:07:09;22.50;1.00
10417;DHT22;62605;49.432;8.680;2023-06-04T09:09:40;22.60;1.00
10417;DHT22;62605;49.432;8.680;2023-06-04T09:12:10;22.70;1.00
10417;DHT22;62605;49.432;8.680;2023-06-04T09:14:37;22.80;1.00
10417;DHT22;62605;49.432;8.680;2023-06-04T09:17:04;23.20;1.00
10417;DHT22;62605;49.432;8.680;2023-06-04T09:19:32;23.50;1.00
10417;DHT22;62605;49.432;8.680;2023-06-04T09:22:00;23.70;1.00
10417;DHT22;62605;49.432;8.680;2023-06-04T09:24:40;23.80;1.00
10417;DHT22;62605;49.432;8.680;2023-06-04T09:27:11;23.70;1.00
10417;DHT22;62605;49.432;8.680;2023-06-04T09:29:39;23.80;1.00
10417;DHT22;62605;49.432;8.680;2023-06-04T09:32:06;23.50;1.00
10417;DHT22;62605;49.432;8.680;2023-06-04T09:34:33;23.50;1.00
10417;DHT22;62605;49.432;8.680;2023-06-04T09:37:00;23.70;1.00
10417;DHT22;62605;49.432;8.680;2023-06-04T09:39:27;23.50;1.00
10417;DHT22;62605;49.432;8.680;2023-06-04T09:42:00;23.50;1.00
10417;DHT22;62605;49.432;8.680;2023-06-04T09:44:28;23.40;1.00
10417;DHT22;62605;49.432;8.680;2023-06-04T09:46:57;23.70;1.00
10417;DHT22;62605;49.432;8.680;2023-06-04T09:49:25;24.20;1.00
10417;DHT22;62605;49.432;8.680;2023-06-04T09:51:52;24.40;1.00
10417;DHT22;62605;49.432;8.680;2023-06-04T09:54:19;24.20;1.00
10417;DHT22;62605;49.432;8.680;2023-06-04T09:56:46;24.50;1.00
10417;DHT22;62605;49.432;8.680;2023-06-04T09:59:15;24.70;1.00
10417;DHT22;62605;49.432;8.680;2023-06-04T10:01:44;24.80;1.00
10417;DHT22;62605;49.432;8.680;2023-06-04T10:04:13;24.70;1.00
10417;DHT22;62605;49.432;8.680;2023-06-04T10:06:41;25.00;1.00
10417;DHT22;62605;49.432;8.680;2023-06-04T10:09:09;24.80;1.00
10417;DHT22;62605;49.432;8.680;2023-06-04T10:11:44;25.30;1.00
10417;DHT22;62605;49.432;8.680;2023-06-04T10:14:21;24.90;1.00
10417;DHT22;62605;49.432;8.680;2023-06-04T10:16:48;24.70;1.00
10417;DHT22;62605;49.432;8.680;2023-06-04T10:19:18;24.80;1.00
10417;DHT22;62605;49.432;8.680;2023-06-04T10:21:46;24.70;1.00
10417;DHT22;62605;49.432;8.680;2023-06-04T10:24:14;24.70;1.00
10417;DHT22;62605;49.432;8.680;2023-06-04T10:26:42;24.80;1.00
10417;DHT22;62605;49.432;8.680;2023-06-04T10:29:10;25.10;1.00
10417;DHT22;62605;49.432;8.680;2023-06-04T10:31:39;24.80;1.00
10417;DHT22;62605;49.432;8.680;2023-06-04T10:34:07;25.10;1.00
10417;DHT22;62605;49.432;8.680;2023-06-04T10:36:43;25.20;1.00
10417;DHT22;62605;49.432;8.680;2023-06-04T10:39:10;25.60;1.00
10417;DHT22;62605;49.432;8.680;2023-06-04T10:41:38;25.50;1.00
10417;DHT22;62605;49.432;8.680;2023-06-04T10:44:05;25.40;1.00
10417;DHT22;62605;49.432;8.680;2023-06-04T10:46:41;25.50;1.00
10417;DHT22;62605;49.432;8.680;2023-06-04T10:49:09;25.40;1.00
10417;DHT22;62605;49.432;8.680;2023-06-04T10:51:37;25.70;1.00
10417;DHT22;62605;49.432;8.680;2023-06-04T10:54:04;25.60;1.00
10417;DHT22;62605;49.432;8.680;2023-06-04T10:56:32;25.80;1.00
10417;DHT22;62605;49.432;8.680;2023-06-04T10:59:01;25.80;1.00
10417;DHT22;62605;49.432;8.680;2023-06-04T11:01:40;25.90;1.00
10417;DHT22;62605;49.432;8.680;2023-06-04T11:04:18;25.90;1.00
10417;DHT22;62605;49.432;8.680;2023-06-04T11:06:46;26.00;1.00
10417;DHT22;62605;49.432;8.680;2023-06-04T11:09:14;26.30;1.00
10417;DHT22;62605;49.432;8.680;2023-06-04T11:11:42;26.20;1.00
10417;DHT22;62605;49.432;8.680;2023-06-04T11:14:10;25.90;1.00
10417;DHT22;62605;49.432;8.680;2023-06-04T11:16:38;26.10;1.00
10417;DHT22;62605;49.432;8.680;2023-06-04T11:19:07;26.10;1.00
10417;DHT22;62605;49.432;8.680;2023-06-04T11:21:34;26.20;1.00
10417;DHT22;62605;49.432;8.680;2023-06-04T11:24:04;26.40;1.00
10417;DHT22;62605;49.432;8.680;2023-06-04T11:26:33;26.00;1.00
10417;DHT22;62605;49.432;8.680;2023-06-04T11:29:01;25.30;1.00
10417;DHT22;62605;49.432;8.680;2023-06-04T11:31:28;25.70;1.00
10417;DHT22;62605;49.432;8.680;2023-06-04T11:33:55;26.00;1.00
10417;DHT22;62605;49.432;8.680;2023-06-04T11:36:25;25.90;1.00
10417;DHT22;62605;49.432;8.680;2023-06-04T11:38:57;25.80;1.00
10417;DHT22;62605;49.432;8.680;2023-06-04T11:41:27;26.10;1.00
10417;DHT22;62605;49.432;8.680;2023-06-04T11:43:57;25.90;1.00
10417;DHT22;62605;49.432;8.680;2023-06-04T11:46:24;25.40;1.00
10417;DHT22;62605;49.432;8.680;2023-06-04T11:48:52;25.90;1.00
10417;DHT22;62605;49.432;8.680;2023-06-04T11:51:19;26.70;1.00
10417;DHT22;62605;49.432;8.680;2023-06-04T11:53:50;26.40;1.00
10417;DHT22;62605;49.432;8.680;2023-06-04T11:56:18;26.50;1.00
10417;DHT22;62605;49.432;8.680;2023-06-04T11:58:45;26.70;1.00
10417;DHT22;62605;49.432;8.680;2023-06-04T12:01:13;26.10;1.00
10417;DHT22;62605;49.432;8.680;2023-06-04T12:03:42;26.00;1.00
10417;DHT22;62605;49.432;8.680;2023-06-04T12:06:13;25.50;1.00
10417;DHT22;62605;49.432;8.680;2023-06-04T12:08:53;25.80;1.00
10417;DHT22;62605;49.432;8.680;2023-06-04T12:11:30;25.90;1.00
10417;DHT22;62605;49.432;8.680;2023-06-04T12:14:00;26.30;1.00
10417;DHT22;62605;49.432;8.680;2023-06-04T12:16:27;26.30;1.00
10417;DHT22;62605;49.432;8.680;2023-06-04T12:19:06;26.40;1.00
10417;DHT22;62605;49.432;8.680;2023-06-04T12:21:34;26.30;1.00
10417;DHT22;62605;49.432;8.680;2023-06-04T12:24:10;26.30;1.00
10417;DHT22;62605;49.432;8.680;2023-06-04T12:26:48;26.80;1.00
10417;DHT22;62605;49.432;8.680;2023-06-04T12:29:17;26.60;1.00
10417;DHT22;62605;49.432;8.680;2023-06-04T12:31:46;26.30;1.00
10417;DHT22;62605;49.432;8.680;2023-06-04T12:34:15;26.30;1.00
10417;DHT22;62605;49.432;8.680;2023-06-04T12:36:43;26.70;1.00
10417;DHT22;62605;49.432;8.680;2023-06-04T12:39:12;26.40;1.00
10417;DHT22;62605;49.432;8.680;2023-06-04T12:41:45;26.40;1.00
10417;DHT22;62605;49.432;8.680;2023-06-04T12:44:12;26.50;1.00
10417;DHT22;62605;49.432;8.680;2023-06-04T12:46:40;26.60;1.00
10417;DHT22;62605;49.432;8.680;2023-06-04T12:49:08;26.10;1.00
10417;DHT22;62605;49.432;8.680;2023-06-04T12:51:35;26.40;1.00
10417;DHT22;62605;49.432;8.680;2023-06-04T12:54:03;26.90;1.00
10417;DHT22;62605;49.432;8.680;2023-06-04T12:56:32;27.40;1.00
10417;DHT22;62605;49.432;8.680;2023-06-04T12:58:59;27.40;1.00
10417;DHT22;62605;49.432;8.680;2023-06-04T13:01:26;27.40;1.00
10417;DHT22;62605;49.432;8.680;2023-06-04T13:03:54;27.30;1.00
10417;DHT22;62605;49.432;8.680;2023-06-04T13:06:22;26.60;1.00
10417;DHT22;62605;49.432;8.680;2023-06-04T13:08:49;26.60;1.00
10417;DHT22;62605;49.432;8.680;2023-06-04T13:11:16;26.70;1.00
10417;DHT22;62605;49.432;8.680;2023-06-04T13:13:45;26.80;1.00
10417;DHT22;62605;49.432;8.680;2023-06-04T13:16:12;26.90;1.00
10417;DHT22;62605;49.432;8.680;2023-06-04T13:18:39;27.30;1.00
10417;DHT22;62605;49.432;8.680;2023-06-04T13:21:06;27.20;1.00
10417;DHT22;62605;49.432;8.680;2023-06-04T13:23:34;27.10;1.00
10417;DHT22;62605;49.432;8.680;2023-06-04T13:26:01;27.20;1.00
10417;DHT22;62605;49.432;8.680;2023-06-04T13:28:27;27.30;1.00
10417;DHT22;62605;49.432;8.680;2023-06-04T13:30:56;27.70;1.00
10417;DHT22;62605;49.432;8.680;2023-06-04T13:33:23;27.20;1.00
10417;DHT22;62605;49.432;8.680;2023-06-04T13:35:50;27.20;1.00
10417;DHT22;62605;49.432;8.680;2023-06-04T13:38:18;27.20;1.00
10417;DHT22;62605;49.432;8.680;2023-06-04T13:40:45;27.40;1.00
10417;DHT22;62605;49.432;8.680;2023-06-04T13:43:12;27.10;1.00
10417;DHT22;62605;49.432;8.680;2023-06-04T13:45:39;27.10;1.00
10417;DHT22;62605;49.432;8.680;2023-06-04T13:48:09;27.20;1.00
10417;DHT22;62605;49.432;8.680;2023-06-04T13:50:36;27.00;1.00
10417;DHT22;62605;49.432;8.680;2023-06-04T13:53:03;27.10;1.00
10417;DHT22;62605;49.432;8.680;2023-06-04T13:55:30;26.90;1.00
10417;DHT22;62605;49.432;8.680;2023-06-04T13:57:57;27.10;1.00
10417;DHT22;62605;49.432;8.680;2023-06-04T14:00:24;27.20;1.00
10417;DHT22;62605;49.432;8.680;2023-06-04T14:02:51;27.40;1.00
10417;DHT22;62605;49.432;8.680;2023-06-04T14:05:24;27.30;1.00
10417;DHT22;62605;49.432;8.680;2023-06-04T14:07:53;27.10;1.00
10417;DHT22;62605;49.432;8.680;2023-06-04T14:10:20;27.50;1.00
10417;DHT22;62605;49.432;8.680;2023-06-04T14:12:47;27.70;1.00
10417;DHT22;62605;49.432;8.680;2023-06-04T14:15:14;27.70;1.00
10417;DHT22;62605;49.432;8.680;2023-06-04T14:17:41;27.60;1.00
10417;DHT22;62605;49.432;8.680;2023-06-04T14:20:08;28.20;1.00
10417;DHT22;62605;49.432;8.680;2023-06-04T14:22:37;28.00;1.00
10417;DHT22;62605;49.432;8.680;2023-06-04T14:25:05;27.60;1.00
10417;DHT22;62605;49.432;8.680;2023-06-04T14:27:33;27.50;1.00
10417;DHT22;62605;49.432;8.680;2023-06-04T14:30:01;27.60;1.00
10417;DHT22;62605;49.432;8.680;2023-06-04T14:32:28;27.60;1.00
10417;DHT22;62605;49.432;8.680;2023-06-04T14:34:55;28.30;1.00
10417;DHT22;62605;49.432;8.680;2023-06-04T14:37:23;28.10;1.00
10417;DHT22;62605;49.432;8.680;2023-06-04T14:39:52;28.00;1.00
10417;DHT22;62605;49.432;8.680;2023-06-04T14:42:22;27.50;1.00
10417;DHT22;62605;49.432;8.680;2023-06-04T14:44:50;28.10;1.00
10417;DHT22;62605;49.432;8.680;2023-06-04T14:47:17;28.40;1.00
10417;DHT22;62605;49.432;8.680;2023-06-04T14:49:44;28.70;1.00
10417;DHT22;62605;49.432;8.680;2023-06-04T14:52:15;28.40;1.00
10417;DHT22;62605;49.432;8.680;2023-06-04T14:54:43;28.20;1.00
10417;DHT22;62605;49.432;8.680;2023-06-04T14:57:11;28.20;1.00
10417;DHT22;62605;49.432;8.680;2023-06-04T14:59:39;28.30;1.00
10417;DHT22;62605;49.432;8.680;2023-06-04T15:02:08;27.70;1.00
10417;DHT22;62605;49.432;8.680;2023-06-04T15:04:35;27.90;1.00
10417;DHT22;62605;49.432;8.680;2023-06-04T15:07:08;27.90;1.00
10417;DHT22;62605;49.432;8.680;2023-06-04T15:09:35;28.50;1.00
10417;DHT22;62605;49.432;8.680;2023-06-04T15:12:02;28.40;1.00
10417;DHT22;62605;49.432;8.680;2023-06-04T15:14:31;28.60;1.00
10417;DHT22;62605;49.432;8.680;2023-06-04T15:16:58;28.10;1.00
10417;DHT22;62605;49.432;8.680;2023-06-04T15:19:25;28.70;1.00
10417;DHT22;62605;49.432;8.680;2023-06-04T15:21:52;28.70;1.00
10417;DHT22;62605;49.432;8.680;2023-06-04T15:24:18;28.70;1.00
10417;DHT22;62605;49.432;8.680;2023-06-04T15:26:48;29.30;1.00
10417;DHT22;62605;49.432;8.680;2023-06-04T15:29:16;30.10;1.00
10417;DHT22;62605;49.432;8.680;2023-06-04T15:31:49;29.60;1.00
10417;DHT22;62605;49.432;8.680;2023-06-04T15:34:18;29.20;1.00
10417;DHT22;62605;49.432;8.680;2023-06-04T15:36:49;29.60;1.00
10417;DHT22;62605;49.432;8.680;2023-06-04T15:39:16;29.80;1.00
10417;DHT22;62605;49.432;8.680;2023-06-04T15:41:46;29.80;1.00
10417;DHT22;62605;49.432;8.680;2023-06-04T15:44:14;29.30;1.00
10417;DHT22;62605;49.432;8.680;2023-06-04T15:46:42;29.70;1.00
10417;DHT22;62605;49.432;8.680;2023-06-04T15:49:13;29.70;1.00
10417;DHT22;62605;49.432;8.680;2023-06-04T15:51:41;29.50;1.00
10417;DHT22;62605;49.432;8.680;2023-06-04T15:54:11;29.00;1.00
10417;DHT22;62605;49.432;8.680;2023-06-04T15:56:38;28.90;1.00
10417;DHT22;62605;49.432;8.680;2023-06-04T15:59:05;29.80;1.00